sensor_id;sensor_type;location;lat;lon;timestamp;P1;durP1;ratioP1;P2;durP2;ratioP2
34060;SDS011;20336;-33.424;-70.638;2023-05-16T00:01:14;62.27;;;32.27;;
34060;SDS011;20336;-33.424;-70.638;2023-05-16T00:03:42;60.93;;;31.97;;
34060;SDS011;20336;-33.424;-70.638;2023-05-16T00:06:09;58.80;;;31.60;;
34060;SDS011;20336;-33.424;-70.638;2023-05-16T00:08:36;58.63;;;30.30;;
34060;SDS011;20336;-33.424;-70.638;2023-05-16T00:11:06;55.30;;;31.33;;
34060;SDS011;20336;-33.424;-70.638;2023-05-16T00:13:33;57.27;;;32.17;;
34060;SDS011;20336;-33.424;-70.638;2023-05-16T00:16:00;64.17;;;32.97;;
34060;SDS011;20336;-33.424;-70.638;2023-05-16T00:18:29;65.10;;;32.80;;
34060;SDS011;20336;-33.424;-70.638;2023-05-16T00:20:56;64.30;;;31.80;;
34060;SDS011;20336;-33.424;-70.638;2023-05-16T00:23:27;65.17;;;32.40;;
34060;SDS011;20336;-33.424;-70.638;2023-05-16T00:25:54;68.20;;;32.57;;
34060;SDS011;20336;-33.424;-70.638;2023-05-16T00:28:21;62.70;;;31.80;;
34060;SDS011;20336;-33.424;-70.638;2023-05-16T00:30:48;70.47;;;34.73;;
34060;SDS011;20336;-33.424;-70.638;2023-05-16T00:33:15;69.53;;;34.67;;
34060;SDS011;20336;-33.424;-70.638;2023-05-16T00:35:42;70.13;;;34.57;;
34060;SDS011;20336;-33.424;-70.638;2023-05-16T00:38:09;65.27;;;34.90;;
34060;SDS011;20336;-33.424;-70.638;2023-05-16T00:40:36;72.23;;;34.47;;
34060;SDS011;20336;-33.424;-70.638;2023-05-16T00:43:03;66.67;;;33.17;;
34060;SDS011;20336;-33.424;-70.638;2023-05-16T00:45:30;71.77;;;34.70;;
34060;SDS011;20336;-33.424;-70.638;2023-05-16T00:47:56;64.50;;;34.37;;
34060;SDS011;20336;-33.424;-70.638;2023-05-16T00:50:23;69.77;;;34.73;;
34060;SDS011;20336;-33.424;-70.638;2023-05-16T00:52:50;62.13;;;33.37;;
34060;SDS011;20336;-33.424;-70.638;2023-05-16T00:55:17;65.03;;;32.90;;
34060;SDS011;20336;-33.424;-70.638;2023-05-16T00:57:44;69.10;;;33.80;;
34060;SDS011;20336;-33.424;-70.638;2023-05-16T01:00:11;68.13;;;34.07;;
34060;SDS011;20336;-33.424;-70.638;2023-05-16T01:02:40;71.77;;;35.63;;
34060;SDS011;20336;-33.424;-70.638;2023-05-16T01:05:07;74.20;;;35.27;;
34060;SDS011;20336;-33.424;-70.638;2023-05-16T01:07:34;70.17;;;36.10;;
34060;SDS011;20336;-33.424;-70.638;2023-05-16T01:10:02;67.60;;;33.83;;
34060;SDS011;20336;-33.424;-70.638;2023-05-16T01:12:50;73.47;;;34.90;;
34060;SDS011;20336;-33.424;-70.638;2023-05-16T01:15:24;65.93;;;33.83;;
34060;SDS011;20336;-33.424;-70.638;2023-05-16T01:18:11;64.87;;;32.40;;
34060;SDS011;20336;-33.424;-70.638;2023-05-16T01:28:05;75.13;;;34.77;;
34060;SDS011;20336;-33.424;-70.638;2023-05-16T01:30:34;69.60;;;35.50;;
34060;SDS011;20336;-33.424;-70.638;2023-05-16T01:33:01;65.10;;;33.90;;
34060;SDS011;20336;-33.424;-70.638;2023-05-16T01:35:29;65.23;;;32.33;;
34060;SDS011;20336;-33.424;-70.638;2023-05-16T01:43:10;54.77;;;28.87;;
34060;SDS011;20336;-33.424;-70.638;2023-05-16T01:45:38;53.97;;;27.93;;
34060;SDS011;20336;-33.424;-70.638;2023-05-16T01:48:07;55.07;;;27.07;;
34060;SDS011;20336;-33.424;-70.638;2023-05-16T01:50:38;52.13;;;26.30;;
34060;SDS011;20336;-33.424;-70.638;2023-05-16T01:53:09;58.77;;;29.80;;
34060;SDS011;20336;-33.424;-70.638;2023-05-16T01:55:42;60.67;;;30.17;;
34060;SDS011;20336;-33.424;-70.638;2023-05-16T01:58:10;58.47;;;28.73;;
34060;SDS011;20336;-33.424;-70.638;2023-05-16T02:00:38;61.00;;;29.17;;
34060;SDS011;20336;-33.424;-70.638;2023-05-16T02:03:05;59.37;;;30.50;;
34060;SDS011;20336;-33.424;-70.638;2023-05-16T02:05:32;61.50;;;31.23;;
34060;SDS011;20336;-33.424;-70.638;2023-05-16T02:08:00;80.67;;;40.27;;
34060;SDS011;20336;-33.424;-70.638;2023-05-16T02:10:27;64.37;;;33.40;;
34060;SDS011;20336;-33.424;-70.638;2023-05-16T02:12:53;67.00;;;33.17;;
34060;SDS011;20336;-33.424;-70.638;2023-05-16T02:15:20;61.93;;;32.77;;
34060;SDS011;20336;-33.424;-70.638;2023-05-16T02:17:47;66.90;;;33.47;;
34060;SDS011;20336;-33.424;-70.638;2023-05-16T02:20:14;70.40;;;34.13;;
34060;SDS011;20336;-33.424;-70.638;2023-05-16T02:22:41;73.23;;;35.30;;
34060;SDS011;20336;-33.424;-70.638;2023-05-16T02:25:08;76.67;;;36.73;;
34060;SDS011;20336;-33.424;-70.638;2023-05-16T02:27:35;68.23;;;34.83;;
34060;SDS011;20336;-33.424;-70.638;2023-05-16T02:30:02;72.77;;;36.63;;
34060;SDS011;20336;-33.424;-70.638;2023-05-16T02:32:30;68.53;;;34.23;;
34060;SDS011;20336;-33.424;-70.638;2023-05-16T02:34:58;67.20;;;34.90;;
34060;SDS011;20336;-33.424;-70.638;2023-05-16T02:37:25;65.57;;;34.00;;
34060;SDS011;20336;-33.424;-70.638;2023-05-16T02:39:51;59.83;;;31.37;;
34060;SDS011;20336;-33.424;-70.638;2023-05-16T02:42:18;57.87;;;29.47;;
34060;SDS011;20336;-33.424;-70.638;2023-05-16T02:44:45;58.83;;;31.73;;
34060;SDS011;20336;-33.424;-70.638;2023-05-16T02:47:14;61.83;;;29.53;;
34060;SDS011;20336;-33.424;-70.638;2023-05-16T02:49:41;61.87;;;30.13;;
34060;SDS011;20336;-33.424;-70.638;2023-05-16T02:52:08;62.20;;;31.37;;
34060;SDS011;20336;-33.424;-70.638;2023-05-16T02:54:36;63.30;;;31.50;;
34060;SDS011;20336;-33.424;-70.638;2023-05-16T02:57:03;64.53;;;33.13;;
34060;SDS011;20336;-33.424;-70.638;2023-05-16T02:59:30;65.40;;;32.63;;
34060;SDS011;20336;-33.424;-70.638;2023-05-16T03:01:57;63.97;;;33.30;;
34060;SDS011;20336;-33.424;-70.638;2023-05-16T03:04:24;67.07;;;32.63;;
34060;SDS011;20336;-33.424;-70.638;2023-05-16T03:06:51;70.63;;;35.03;;
34060;SDS011;20336;-33.424;-70.638;2023-05-16T03:09:17;73.40;;;37.73;;
34060;SDS011;20336;-33.424;-70.638;2023-05-16T03:11:45;70.73;;;37.63;;
34060;SDS011;20336;-33.424;-70.638;2023-05-16T03:14:12;75.00;;;37.50;;
34060;SDS011;20336;-33.424;-70.638;2023-05-16T03:16:38;82.27;;;39.80;;
34060;SDS011;20336;-33.424;-70.638;2023-05-16T03:19:08;85.60;;;40.83;;
34060;SDS011;20336;-33.424;-70.638;2023-05-16T03:21:35;82.63;;;41.20;;
34060;SDS011;20336;-33.424;-70.638;2023-05-16T03:24:02;72.87;;;38.87;;
34060;SDS011;20336;-33.424;-70.638;2023-05-16T03:26:29;76.77;;;38.70;;
34060;SDS011;20336;-33.424;-70.638;2023-05-16T03:28:56;72.57;;;38.97;;
34060;SDS011;20336;-33.424;-70.638;2023-05-16T03:31:23;77.07;;;39.47;;
34060;SDS011;20336;-33.424;-70.638;2023-05-16T03:33:50;78.47;;;37.70;;
34060;SDS011;20336;-33.424;-70.638;2023-05-16T03:36:17;76.27;;;39.07;;
34060;SDS011;20336;-33.424;-70.638;2023-05-16T03:38:44;84.90;;;39.73;;
34060;SDS011;20336;-33.424;-70.638;2023-05-16T03:41:11;76.17;;;38.67;;
34060;SDS011;20336;-33.424;-70.638;2023-05-16T03:43:38;74.57;;;38.50;;
34060;SDS011;20336;-33.424;-70.638;2023-05-16T03:46:05;76.63;;;38.20;;
34060;SDS011;20336;-33.424;-70.638;2023-05-16T03:48:32;77.60;;;39.30;;
34060;SDS011;20336;-33.424;-70.638;2023-05-16T03:50:59;76.57;;;39.17;;
34060;SDS011;20336;-33.424;-70.638;2023-05-16T03:53:26;73.10;;;40.30;;
34060;SDS011;20336;-33.424;-70.638;2023-05-16T03:55:53;76.90;;;41.10;;
34060;SDS011;20336;-33.424;-70.638;2023-05-16T03:58:20;78.53;;;38.63;;
34060;SDS011;20336;-33.424;-70.638;2023-05-16T04:00:47;76.70;;;39.77;;
34060;SDS011;20336;-33.424;-70.638;2023-05-16T04:03:14;83.13;;;40.87;;
34060;SDS011;20336;-33.424;-70.638;2023-05-16T04:05:40;80.20;;;39.60;;
34060;SDS011;20336;-33.424;-70.638;2023-05-16T04:08:07;92.83;;;43.57;;
34060;SDS011;20336;-33.424;-70.638;2023-05-16T04:10:34;90.97;;;43.50;;
34060;SDS011;20336;-33.424;-70.638;2023-05-16T04:13:01;89.63;;;44.07;;
34060;SDS011;20336;-33.424;-70.638;2023-05-16T04:15:28;75.13;;;41.30;;
34060;SDS011;20336;-33.424;-70.638;2023-05-16T04:17:55;92.97;;;44.27;;
34060;SDS011;20336;-33.424;-70.638;2023-05-16T04:20:22;80.87;;;39.90;;
34060;SDS011;20336;-33.424;-70.638;2023-05-16T04:22:49;82.33;;;40.93;;
34060;SDS011;20336;-33.424;-70.638;2023-05-16T04:25:16;88.33;;;42.97;;
34060;SDS011;20336;-33.424;-70.638;2023-05-16T04:27:43;82.33;;;41.03;;
34060;SDS011;20336;-33.424;-70.638;2023-05-16T04:30:10;79.33;;;41.03;;
34060;SDS011;20336;-33.424;-70.638;2023-05-16T04:32:39;84.27;;;41.37;;
34060;SDS011;20336;-33.424;-70.638;2023-05-16T04:35:06;78.53;;;41.17;;
34060;SDS011;20336;-33.424;-70.638;2023-05-16T04:37:33;81.60;;;41.53;;
34060;SDS011;20336;-33.424;-70.638;2023-05-16T04:40:00;83.60;;;42.77;;
34060;SDS011;20336;-33.424;-70.638;2023-05-16T04:42:27;83.40;;;42.03;;
34060;SDS011;20336;-33.424;-70.638;2023-05-16T04:44:54;84.67;;;42.33;;
34060;SDS011;20336;-33.424;-70.638;2023-05-16T04:47:21;85.03;;;42.27;;
34060;SDS011;20336;-33.424;-70.638;2023-05-16T04:49:48;87.57;;;43.43;;
34060;SDS011;20336;-33.424;-70.638;2023-05-16T04:52:15;80.27;;;41.80;;
34060;SDS011;20336;-33.424;-70.638;2023-05-16T04:54:42;84.37;;;41.87;;
34060;SDS011;20336;-33.424;-70.638;2023-05-16T04:57:09;83.13;;;43.00;;
34060;SDS011;20336;-33.424;-70.638;2023-05-16T04:59:35;88.60;;;44.27;;
34060;SDS011;20336;-33.424;-70.638;2023-05-16T05:02:03;90.13;;;44.23;;
34060;SDS011;20336;-33.424;-70.638;2023-05-16T05:04:30;88.10;;;43.27;;
34060;SDS011;20336;-33.424;-70.638;2023-05-16T05:06:57;86.40;;;42.53;;
34060;SDS011;20336;-33.424;-70.638;2023-05-16T05:09:24;87.87;;;43.23;;
34060;SDS011;20336;-33.424;-70.638;2023-05-16T05:11:51;84.37;;;42.07;;
34060;SDS011;20336;-33.424;-70.638;2023-05-16T05:14:18;82.80;;;42.10;;
34060;SDS011;20336;-33.424;-70.638;2023-05-16T05:16:45;85.87;;;41.53;;
34060;SDS011;20336;-33.424;-70.638;2023-05-16T05:19:11;87.00;;;42.13;;
34060;SDS011;20336;-33.424;-70.638;2023-05-16T05:21:38;77.43;;;39.93;;
34060;SDS011;20336;-33.424;-70.638;2023-05-16T05:24:05;85.87;;;43.53;;
34060;SDS011;20336;-33.424;-70.638;2023-05-16T05:26:32;78.37;;;41.67;;
34060;SDS011;20336;-33.424;-70.638;2023-05-16T05:28:59;80.27;;;41.40;;
34060;SDS011;20336;-33.424;-70.638;2023-05-16T05:31:25;89.57;;;43.30;;
34060;SDS011;20336;-33.424;-70.638;2023-05-16T05:33:52;93.70;;;42.43;;
34060;SDS011;20336;-33.424;-70.638;2023-05-16T05:36:21;79.93;;;41.63;;
34060;SDS011;20336;-33.424;-70.638;2023-05-16T05:38:48;80.37;;;41.33;;
34060;SDS011;20336;-33.424;-70.638;2023-05-16T05:41:14;87.03;;;41.77;;
34060;SDS011;20336;-33.424;-70.638;2023-05-16T05:43:41;78.73;;;39.47;;
34060;SDS011;20336;-33.424;-70.638;2023-05-16T05:46:08;78.90;;;39.73;;
34060;SDS011;20336;-33.424;-70.638;2023-05-16T05:48:35;80.53;;;41.07;;
34060;SDS011;20336;-33.424;-70.638;2023-05-16T05:51:02;84.47;;;41.27;;
34060;SDS011;20336;-33.424;-70.638;2023-05-16T05:53:29;82.10;;;41.60;;
34060;SDS011;20336;-33.424;-70.638;2023-05-16T05:55:56;81.17;;;39.80;;
34060;SDS011;20336;-33.424;-70.638;2023-05-16T05:58:22;85.57;;;41.10;;
34060;SDS011;20336;-33.424;-70.638;2023-05-16T06:00:49;82.97;;;39.53;;
34060;SDS011;20336;-33.424;-70.638;2023-05-16T06:03:16;88.43;;;41.63;;
34060;SDS011;20336;-33.424;-70.638;2023-05-16T06:05:45;74.93;;;38.17;;
34060;SDS011;20336;-33.424;-70.638;2023-05-16T06:08:12;82.33;;;39.73;;
34060;SDS011;20336;-33.424;-70.638;2023-05-16T06:10:39;77.67;;;39.17;;
34060;SDS011;20336;-33.424;-70.638;2023-05-16T06:13:06;80.30;;;38.30;;
34060;SDS011;20336;-33.424;-70.638;2023-05-16T06:15:32;77.10;;;36.77;;
34060;SDS011;20336;-33.424;-70.638;2023-05-16T06:17:59;76.27;;;35.63;;
34060;SDS011;20336;-33.424;-70.638;2023-05-16T06:20:26;66.47;;;35.17;;
34060;SDS011;20336;-33.424;-70.638;2023-05-16T06:22:53;67.10;;;34.87;;
34060;SDS011;20336;-33.424;-70.638;2023-05-16T06:25:20;63.80;;;32.80;;
34060;SDS011;20336;-33.424;-70.638;2023-05-16T06:27:46;65.37;;;32.40;;
34060;SDS011;20336;-33.424;-70.638;2023-05-16T06:30:14;63.87;;;31.53;;
34060;SDS011;20336;-33.424;-70.638;2023-05-16T06:32:40;67.13;;;34.60;;
34060;SDS011;20336;-33.424;-70.638;2023-05-16T06:35:08;72.00;;;35.13;;
34060;SDS011;20336;-33.424;-70.638;2023-05-16T06:37:35;65.53;;;32.83;;
34060;SDS011;20336;-33.424;-70.638;2023-05-16T06:40:02;58.87;;;32.37;;
34060;SDS011;20336;-33.424;-70.638;2023-05-16T06:42:29;66.37;;;34.10;;
34060;SDS011;20336;-33.424;-70.638;2023-05-16T06:44:56;66.20;;;33.67;;
34060;SDS011;20336;-33.424;-70.638;2023-05-16T06:47:23;65.10;;;34.20;;
34060;SDS011;20336;-33.424;-70.638;2023-05-16T06:49:50;71.83;;;35.57;;
34060;SDS011;20336;-33.424;-70.638;2023-05-16T06:52:17;70.30;;;37.10;;
34060;SDS011;20336;-33.424;-70.638;2023-05-16T06:54:43;75.23;;;37.63;;
34060;SDS011;20336;-33.424;-70.638;2023-05-16T06:57:10;67.00;;;34.17;;
34060;SDS011;20336;-33.424;-70.638;2023-05-16T06:59:38;66.83;;;32.00;;
34060;SDS011;20336;-33.424;-70.638;2023-05-16T07:02:05;64.53;;;34.20;;
34060;SDS011;20336;-33.424;-70.638;2023-05-16T07:04:32;63.77;;;34.40;;
34060;SDS011;20336;-33.424;-70.638;2023-05-16T07:07:02;70.07;;;33.70;;
34060;SDS011;20336;-33.424;-70.638;2023-05-16T07:09:32;66.20;;;34.07;;
34060;SDS011;20336;-33.424;-70.638;2023-05-16T07:11:59;68.67;;;35.27;;
34060;SDS011;20336;-33.424;-70.638;2023-05-16T07:14:26;72.43;;;36.03;;
34060;SDS011;20336;-33.424;-70.638;2023-05-16T07:16:53;75.53;;;36.13;;
34060;SDS011;20336;-33.424;-70.638;2023-05-16T07:19:20;73.33;;;35.17;;
34060;SDS011;20336;-33.424;-70.638;2023-05-16T07:21:46;66.77;;;34.27;;
34060;SDS011;20336;-33.424;-70.638;2023-05-16T07:24:13;70.57;;;35.77;;
34060;SDS011;20336;-33.424;-70.638;2023-05-16T07:26:40;75.53;;;35.57;;
34060;SDS011;20336;-33.424;-70.638;2023-05-16T07:29:07;65.63;;;34.10;;
34060;SDS011;20336;-33.424;-70.638;2023-05-16T07:31:34;68.53;;;36.03;;
34060;SDS011;20336;-33.424;-70.638;2023-05-16T07:34:01;64.67;;;34.73;;
34060;SDS011;20336;-33.424;-70.638;2023-05-16T07:36:28;79.20;;;39.40;;
34060;SDS011;20336;-33.424;-70.638;2023-05-16T07:38:55;66.97;;;35.30;;
34060;SDS011;20336;-33.424;-70.638;2023-05-16T07:41:22;72.37;;;36.63;;
34060;SDS011;20336;-33.424;-70.638;2023-05-16T07:43:49;68.67;;;35.73;;
34060;SDS011;20336;-33.424;-70.638;2023-05-16T07:46:16;80.40;;;40.73;;
34060;SDS011;20336;-33.424;-70.638;2023-05-16T07:48:43;72.67;;;37.73;;
34060;SDS011;20336;-33.424;-70.638;2023-05-16T07:51:10;75.83;;;39.70;;
34060;SDS011;20336;-33.424;-70.638;2023-05-16T07:53:37;84.30;;;42.13;;
34060;SDS011;20336;-33.424;-70.638;2023-05-16T07:56:04;77.37;;;41.57;;
34060;SDS011;20336;-33.424;-70.638;2023-05-16T07:58:31;63.93;;;33.50;;
34060;SDS011;20336;-33.424;-70.638;2023-05-16T08:00:58;67.40;;;32.63;;
34060;SDS011;20336;-33.424;-70.638;2023-05-16T08:03:25;59.43;;;31.47;;
34060;SDS011;20336;-33.424;-70.638;2023-05-16T08:05:52;60.93;;;31.00;;
34060;SDS011;20336;-33.424;-70.638;2023-05-16T08:08:25;63.00;;;31.33;;
34060;SDS011;20336;-33.424;-70.638;2023-05-16T08:10:52;62.93;;;31.10;;
34060;SDS011;20336;-33.424;-70.638;2023-05-16T08:13:19;61.67;;;31.27;;
34060;SDS011;20336;-33.424;-70.638;2023-05-16T08:15:45;66.10;;;34.20;;
34060;SDS011;20336;-33.424;-70.638;2023-05-16T08:18:13;67.47;;;35.03;;
34060;SDS011;20336;-33.424;-70.638;2023-05-16T08:20:40;67.40;;;33.77;;
34060;SDS011;20336;-33.424;-70.638;2023-05-16T08:23:08;68.37;;;34.00;;
34060;SDS011;20336;-33.424;-70.638;2023-05-16T08:25:35;62.73;;;32.10;;
34060;SDS011;20336;-33.424;-70.638;2023-05-16T08:28:02;65.03;;;33.67;;
34060;SDS011;20336;-33.424;-70.638;2023-05-16T08:30:28;58.20;;;31.00;;
34060;SDS011;20336;-33.424;-70.638;2023-05-16T08:32:55;70.47;;;32.80;;
34060;SDS011;20336;-33.424;-70.638;2023-05-16T08:35:22;66.27;;;33.77;;
34060;SDS011;20336;-33.424;-70.638;2023-05-16T08:37:49;68.50;;;33.67;;
34060;SDS011;20336;-33.424;-70.638;2023-05-16T08:40:16;60.83;;;31.57;;
34060;SDS011;20336;-33.424;-70.638;2023-05-16T08:42:43;64.00;;;33.03;;
34060;SDS011;20336;-33.424;-70.638;2023-05-16T08:45:10;63.00;;;31.60;;
34060;SDS011;20336;-33.424;-70.638;2023-05-16T08:47:38;66.27;;;32.57;;
34060;SDS011;20336;-33.424;-70.638;2023-05-16T08:50:06;67.80;;;34.23;;
34060;SDS011;20336;-33.424;-70.638;2023-05-16T08:52:34;63.83;;;33.03;;
34060;SDS011;20336;-33.424;-70.638;2023-05-16T08:55:05;66.30;;;34.83;;
34060;SDS011;20336;-33.424;-70.638;2023-05-16T08:57:34;66.97;;;35.67;;
34060;SDS011;20336;-33.424;-70.638;2023-05-16T09:00:01;71.83;;;35.97;;
34060;SDS011;20336;-33.424;-70.638;2023-05-16T09:02:36;74.00;;;38.30;;
34060;SDS011;20336;-33.424;-70.638;2023-05-16T09:05:04;71.37;;;36.70;;
34060;SDS011;20336;-33.424;-70.638;2023-05-16T09:07:31;74.90;;;36.97;;
34060;SDS011;20336;-33.424;-70.638;2023-05-16T09:09:58;70.97;;;36.10;;
34060;SDS011;20336;-33.424;-70.638;2023-05-16T09:12:25;69.17;;;35.00;;
34060;SDS011;20336;-33.424;-70.638;2023-05-16T09:14:52;72.40;;;37.13;;
34060;SDS011;20336;-33.424;-70.638;2023-05-16T09:17:20;74.40;;;37.40;;
34060;SDS011;20336;-33.424;-70.638;2023-05-16T09:19:47;71.20;;;36.00;;
34060;SDS011;20336;-33.424;-70.638;2023-05-16T09:22:17;66.77;;;35.00;;
34060;SDS011;20336;-33.424;-70.638;2023-05-16T09:24:44;75.87;;;37.53;;
34060;SDS011;20336;-33.424;-70.638;2023-05-16T09:27:12;75.47;;;37.77;;
34060;SDS011;20336;-33.424;-70.638;2023-05-16T09:29:42;75.10;;;37.83;;
34060;SDS011;20336;-33.424;-70.638;2023-05-16T09:34:47;72.83;;;38.30;;
34060;SDS011;20336;-33.424;-70.638;2023-05-16T09:37:16;74.40;;;37.50;;
34060;SDS011;20336;-33.424;-70.638;2023-05-16T09:39:47;72.43;;;36.57;;
34060;SDS011;20336;-33.424;-70.638;2023-05-16T09:42:14;72.47;;;35.90;;
34060;SDS011;20336;-33.424;-70.638;2023-05-16T09:44:51;72.43;;;35.73;;
34060;SDS011;20336;-33.424;-70.638;2023-05-16T09:47:18;66.70;;;34.77;;
34060;SDS011;20336;-33.424;-70.638;2023-05-16T09:49:46;64.23;;;34.30;;
34060;SDS011;20336;-33.424;-70.638;2023-05-16T09:52:14;70.87;;;35.57;;
34060;SDS011;20336;-33.424;-70.638;2023-05-16T09:54:41;68.93;;;35.80;;
34060;SDS011;20336;-33.424;-70.638;2023-05-16T09:57:09;77.93;;;39.33;;
34060;SDS011;20336;-33.424;-70.638;2023-05-16T09:59:39;82.50;;;41.80;;
34060;SDS011;20336;-33.424;-70.638;2023-05-16T10:02:06;82.00;;;41.60;;
34060;SDS011;20336;-33.424;-70.638;2023-05-16T10:04:33;87.07;;;40.93;;
34060;SDS011;20336;-33.424;-70.638;2023-05-16T10:07:04;98.37;;;45.37;;
34060;SDS011;20336;-33.424;-70.638;2023-05-16T10:09:34;90.83;;;43.80;;
34060;SDS011;20336;-33.424;-70.638;2023-05-16T10:12:02;93.03;;;45.83;;
34060;SDS011;20336;-33.424;-70.638;2023-05-16T10:14:34;85.77;;;41.93;;
34060;SDS011;20336;-33.424;-70.638;2023-05-16T10:17:05;82.03;;;39.87;;
34060;SDS011;20336;-33.424;-70.638;2023-05-16T10:19:36;81.40;;;37.27;;
34060;SDS011;20336;-33.424;-70.638;2023-05-16T10:22:04;78.63;;;38.33;;
34060;SDS011;20336;-33.424;-70.638;2023-05-16T10:24:38;78.60;;;38.60;;
34060;SDS011;20336;-33.424;-70.638;2023-05-16T10:27:05;75.67;;;37.30;;
34060;SDS011;20336;-33.424;-70.638;2023-05-16T10:29:32;76.60;;;37.90;;
34060;SDS011;20336;-33.424;-70.638;2023-05-16T10:31:59;72.73;;;36.17;;
34060;SDS011;20336;-33.424;-70.638;2023-05-16T10:34:26;73.60;;;36.53;;
34060;SDS011;20336;-33.424;-70.638;2023-05-16T10:36:53;70.33;;;37.27;;
34060;SDS011;20336;-33.424;-70.638;2023-05-16T10:39:20;79.43;;;39.23;;
34060;SDS011;20336;-33.424;-70.638;2023-05-16T10:41:47;80.50;;;39.10;;
34060;SDS011;20336;-33.424;-70.638;2023-05-16T10:44:15;79.70;;;39.30;;
34060;SDS011;20336;-33.424;-70.638;2023-05-16T10:46:42;82.80;;;39.77;;
34060;SDS011;20336;-33.424;-70.638;2023-05-16T10:49:19;82.07;;;40.97;;
34060;SDS011;20336;-33.424;-70.638;2023-05-16T10:52:03;73.73;;;37.27;;
34060;SDS011;20336;-33.424;-70.638;2023-05-16T10:54:37;79.33;;;38.37;;
34060;SDS011;20336;-33.424;-70.638;2023-05-16T10:57:05;70.13;;;36.23;;
34060;SDS011;20336;-33.424;-70.638;2023-05-16T10:59:44;75.70;;;36.03;;
34060;SDS011;20336;-33.424;-70.638;2023-05-16T11:02:27;80.93;;;38.43;;
34060;SDS011;20336;-33.424;-70.638;2023-05-16T11:04:57;79.17;;;39.37;;
34060;SDS011;20336;-33.424;-70.638;2023-05-16T11:07:24;79.30;;;39.23;;
34060;SDS011;20336;-33.424;-70.638;2023-05-16T11:10:14;84.07;;;41.10;;
34060;SDS011;20336;-33.424;-70.638;2023-05-16T11:12:44;79.20;;;38.03;;
34060;SDS011;20336;-33.424;-70.638;2023-05-16T11:17:44;69.03;;;32.83;;
34060;SDS011;20336;-33.424;-70.638;2023-05-16T11:20:25;69.97;;;33.10;;
34060;SDS011;20336;-33.424;-70.638;2023-05-16T11:23:16;67.97;;;34.20;;
34060;SDS011;20336;-33.424;-70.638;2023-05-16T11:25:38;60.57;;;30.97;;
34060;SDS011;20336;-33.424;-70.638;2023-05-16T11:28:05;67.47;;;30.83;;
34060;SDS011;20336;-33.424;-70.638;2023-05-16T11:30:33;65.23;;;32.33;;
34060;SDS011;20336;-33.424;-70.638;2023-05-16T11:33:00;68.40;;;31.50;;
34060;SDS011;20336;-33.424;-70.638;2023-05-16T11:35:27;71.33;;;33.37;;
34060;SDS011;20336;-33.424;-70.638;2023-05-16T11:37:56;68.97;;;34.77;;
34060;SDS011;20336;-33.424;-70.638;2023-05-16T11:40:23;78.80;;;35.53;;
34060;SDS011;20336;-33.424;-70.638;2023-05-16T11:42:49;67.90;;;33.97;;
34060;SDS011;20336;-33.424;-70.638;2023-05-16T11:45:17;68.77;;;33.80;;
34060;SDS011;20336;-33.424;-70.638;2023-05-16T11:47:46;75.43;;;34.60;;
34060;SDS011;20336;-33.424;-70.638;2023-05-16T11:50:14;73.93;;;35.97;;
34060;SDS011;20336;-33.424;-70.638;2023-05-16T11:52:42;77.83;;;38.63;;
34060;SDS011;20336;-33.424;-70.638;2023-05-16T11:55:10;74.80;;;36.70;;
34060;SDS011;20336;-33.424;-70.638;2023-05-16T11:57:37;77.63;;;36.10;;
34060;SDS011;20336;-33.424;-70.638;2023-05-16T12:00:16;72.10;;;35.83;;
34060;SDS011;20336;-33.424;-70.638;2023-05-16T12:02:44;83.37;;;39.60;;
34060;SDS011;20336;-33.424;-70.638;2023-05-16T12:05:14;70.73;;;35.63;;
34060;SDS011;20336;-33.424;-70.638;2023-05-16T12:07:45;79.83;;;36.87;;
34060;SDS011;20336;-33.424;-70.638;2023-05-16T12:10:13;72.00;;;35.70;;
34060;SDS011;20336;-33.424;-70.638;2023-05-16T12:12:41;80.77;;;37.30;;
34060;SDS011;20336;-33.424;-70.638;2023-05-16T12:15:08;72.70;;;35.37;;
34060;SDS011;20336;-33.424;-70.638;2023-05-16T12:17:35;94.30;;;41.13;;
34060;SDS011;20336;-33.424;-70.638;2023-05-16T12:20:03;99.20;;;43.20;;
34060;SDS011;20336;-33.424;-70.638;2023-05-16T12:22:31;97.20;;;42.90;;
34060;SDS011;20336;-33.424;-70.638;2023-05-16T12:24:58;95.20;;;43.70;;
34060;SDS011;20336;-33.424;-70.638;2023-05-16T12:27:25;90.67;;;40.47;;
34060;SDS011;20336;-33.424;-70.638;2023-05-16T12:29:52;93.60;;;41.57;;
34060;SDS011;20336;-33.424;-70.638;2023-05-16T12:32:19;95.03;;;42.33;;
34060;SDS011;20336;-33.424;-70.638;2023-05-16T12:34:50;86.23;;;41.13;;
34060;SDS011;20336;-33.424;-70.638;2023-05-16T12:37:17;83.40;;;40.60;;
34060;SDS011;20336;-33.424;-70.638;2023-05-16T12:39:44;84.93;;;40.53;;
34060;SDS011;20336;-33.424;-70.638;2023-05-16T12:42:12;94.75;;;42.38;;
34060;SDS011;20336;-33.424;-70.638;2023-05-16T12:44:40;91.37;;;41.97;;
34060;SDS011;20336;-33.424;-70.638;2023-05-16T12:47:11;91.77;;;42.43;;
34060;SDS011;20336;-33.424;-70.638;2023-05-16T12:49:44;88.88;;;41.90;;
34060;SDS011;20336;-33.424;-70.638;2023-05-16T12:52:16;87.00;;;41.27;;
34060;SDS011;20336;-33.424;-70.638;2023-05-16T12:54:44;88.00;;;40.28;;
34060;SDS011;20336;-33.424;-70.638;2023-05-16T12:57:11;92.28;;;40.15;;
34060;SDS011;20336;-33.424;-70.638;2023-05-16T12:59:38;89.45;;;42.17;;
34060;SDS011;20336;-33.424;-70.638;2023-05-16T13:02:06;86.60;;;41.53;;
34060;SDS011;20336;-33.424;-70.638;2023-05-16T13:04:33;84.45;;;42.13;;
34060;SDS011;20336;-33.424;-70.638;2023-05-16T13:07:01;100.40;;;44.80;;
34060;SDS011;20336;-33.424;-70.638;2023-05-16T13:09:29;98.45;;;44.08;;
34060;SDS011;20336;-33.424;-70.638;2023-05-16T13:11:55;96.57;;;43.38;;
34060;SDS011;20336;-33.424;-70.638;2023-05-16T13:14:22;106.18;;;46.63;;
34060;SDS011;20336;-33.424;-70.638;2023-05-16T13:16:49;94.80;;;44.55;;
34060;SDS011;20336;-33.424;-70.638;2023-05-16T13:19:16;95.05;;;43.78;;
34060;SDS011;20336;-33.424;-70.638;2023-05-16T13:21:43;90.47;;;44.90;;
34060;SDS011;20336;-33.424;-70.638;2023-05-16T13:24:10;97.93;;;44.85;;
34060;SDS011;20336;-33.424;-70.638;2023-05-16T13:26:36;98.28;;;46.97;;
34060;SDS011;20336;-33.424;-70.638;2023-05-16T13:29:03;100.00;;;48.40;;
34060;SDS011;20336;-33.424;-70.638;2023-05-16T13:31:30;101.18;;;45.72;;
34060;SDS011;20336;-33.424;-70.638;2023-05-16T13:33:57;103.63;;;49.00;;
34060;SDS011;20336;-33.424;-70.638;2023-05-16T13:36:24;96.43;;;45.13;;
34060;SDS011;20336;-33.424;-70.638;2023-05-16T13:38:51;102.72;;;48.60;;
34060;SDS011;20336;-33.424;-70.638;2023-05-16T13:41:18;100.53;;;47.10;;
34060;SDS011;20336;-33.424;-70.638;2023-05-16T13:43:45;97.82;;;46.33;;
34060;SDS011;20336;-33.424;-70.638;2023-05-16T13:46:12;100.28;;;47.80;;
34060;SDS011;20336;-33.424;-70.638;2023-05-16T13:48:39;99.55;;;47.97;;
34060;SDS011;20336;-33.424;-70.638;2023-05-16T13:51:06;100.53;;;47.05;;
34060;SDS011;20336;-33.424;-70.638;2023-05-16T13:53:35;102.03;;;48.20;;
34060;SDS011;20336;-33.424;-70.638;2023-05-16T13:56:03;102.88;;;48.20;;
34060;SDS011;20336;-33.424;-70.638;2023-05-16T13:58:31;100.05;;;48.70;;
34060;SDS011;20336;-33.424;-70.638;2023-05-16T14:00:57;97.40;;;47.20;;
34060;SDS011;20336;-33.424;-70.638;2023-05-16T14:03:24;113.38;;;50.92;;
34060;SDS011;20336;-33.424;-70.638;2023-05-16T14:05:51;108.47;;;50.97;;